createdAt,value
2022-08-17T00:01:30.262Z,15.00
2022-08-17T00:04:11.619Z,16.67
2022-08-17T00:06:38.286Z,18.37
2022-08-17T00:09:05.478Z,16.17
2022-08-17T00:11:39.692Z,15.10
2022-08-17T00:14:09.719Z,15.30
2022-08-17T00:16:55.822Z,15.63
2022-08-17T00:19:25.267Z,16.97
2022-08-17T00:22:32.623Z,15.30
2022-08-17T00:24:39.783Z,15.40
2022-08-17T00:27:06.449Z,16.17
2022-08-17T00:29:32.911Z,17.20
2022-08-17T00:31:59.557Z,17.13
2022-08-17T00:34:27.932Z,17.53
2022-08-17T00:36:54.521Z,17.87
2022-08-17T00:39:20.977Z,18.20
2022-08-17T00:41:47.685Z,17.43
2022-08-17T00:44:15.603Z,16.93
2022-08-17T00:46:43.580Z,18.77
2022-08-17T00:49:11.855Z,17.20
2022-08-17T00:51:46.734Z,17.70
2022-08-17T00:54:18.490Z,19.23
2022-08-17T00:56:48.521Z,17.23
2022-08-17T00:59:18.910Z,17.57
2022-08-17T01:01:46.442Z,16.57
2022-08-17T01:04:13.157Z,18.83
2022-08-17T01:06:40.777Z,17.20
2022-08-17T01:09:08.662Z,16.93
2022-08-17T01:11:37.126Z,17.03
2022-08-17T01:14:04.050Z,17.47
2022-08-17T01:16:31.609Z,17.43
2022-08-17T01:19:13.803Z,17.80
2022-08-17T01:22:27.116Z,18.00
2022-08-17T01:24:58.969Z,17.37
2022-08-17T01:27:26.763Z,17.77
2022-08-17T01:29:58.130Z,17.17
2022-08-17T01:32:26.683Z,19.83
2022-08-17T01:34:53.800Z,19.83
2022-08-17T01:37:28.676Z,19.60
2022-08-17T01:40:00.673Z,19.60
2022-08-17T01:42:40.357Z,18.53
2022-08-17T01:45:14.620Z,19.27
2022-08-17T01:47:41.692Z,19.50
2022-08-17T01:50:11.268Z,19.53
2022-08-17T01:52:38.125Z,20.23
2022-08-17T01:55:05.308Z,18.47
2022-08-17T01:57:31.774Z,19.77
2022-08-17T01:59:58.692Z,19.57
2022-08-17T02:02:30.908Z,19.00
2022-08-17T02:04:58.978Z,18.77
2022-08-17T02:07:26.976Z,18.30
2022-08-17T02:09:53.644Z,18.40
2022-08-17T02:12:38.538Z,19.37
2022-08-17T02:15:07.816Z,20.23
2022-08-17T02:17:35.073Z,19.83
2022-08-17T02:20:02.031Z,20.30
2022-08-17T02:22:28.929Z,20.13
2022-08-17T02:25:00.952Z,20.57
2022-08-17T02:27:28.624Z,20.50
2022-08-17T02:29:55.150Z,20.40
2022-08-17T02:32:27.832Z,20.70
2022-08-17T02:34:56.535Z,19.90
2022-08-17T02:37:23.124Z,21.53
2022-08-17T02:39:49.645Z,21.30
2022-08-17T02:42:16.292Z,19.23
2022-08-17T02:44:42.907Z,18.90
2022-08-17T02:47:11.878Z,20.23
2022-08-17T02:49:38.493Z,19.60
2022-08-17T02:52:06.603Z,19.20
2022-08-17T02:54:41.159Z,20.40
2022-08-17T02:57:09.158Z,17.70
2022-08-17T02:59:35.631Z,17.07
2022-08-17T03:02:04.354Z,18.83
2022-08-17T03:04:31.196Z,16.57
2022-08-17T03:07:01.848Z,15.67
2022-08-17T03:09:28.326Z,15.97
2022-08-17T03:11:55.832Z,15.73
2022-08-17T03:14:26.242Z,15.00
2022-08-17T03:16:53.040Z,16.63
2022-08-17T03:19:19.825Z,16.63
2022-08-17T03:21:46.261Z,15.50
2022-08-17T03:24:21.677Z,13.77
2022-08-17T03:26:55.188Z,14.97
2022-08-17T03:29:21.717Z,15.20
2022-08-17T03:31:49.211Z,15.37
2022-08-17T03:34:16.555Z,15.47
2022-08-17T03:36:43.397Z,14.33
2022-08-17T03:39:10.170Z,15.20
2022-08-17T03:41:36.912Z,14.87
2022-08-17T03:44:03.888Z,14.83
2022-08-17T03:46:49.232Z,14.43
2022-08-17T03:49:34.540Z,14.70
2022-08-17T03:52:19.824Z,14.73
2022-08-17T03:55:05.122Z,14.63
2022-08-17T03:57:32.507Z,15.33
2022-08-17T03:59:59.709Z,13.50
2022-08-17T04:02:32.500Z,15.13
2022-08-17T04:04:59.677Z,14.57
2022-08-17T04:07:30.654Z,14.63
2022-08-17T04:09:59.386Z,13.50
2022-08-17T04:12:30.972Z,14.00
2022-08-17T04:14:58.742Z,15.40
2022-08-17T04:17:27.809Z,16.97
2022-08-17T04:19:55.282Z,16.33
2022-08-17T04:22:30.847Z,15.17
2022-08-17T04:25:14.650Z,16.30
2022-08-17T04:27:41.208Z,13.93
2022-08-17T04:30:08.356Z,13.73
2022-08-17T04:33:10.644Z,13.27
2022-08-17T04:35:42.813Z,12.93
2022-08-17T04:38:11.924Z,11.83
2022-08-17T04:40:56.974Z,11.83
2022-08-17T04:43:25.001Z,12.00
2022-08-17T04:45:58.208Z,11.27
2022-08-17T04:48:36.487Z,11.83
2022-08-17T04:51:10.699Z,11.00
2022-08-17T04:53:39.236Z,12.20
2022-08-17T04:56:06.126Z,11.40
2022-08-17T04:58:32.662Z,10.70
2022-08-17T05:00:59.562Z,10.73
2022-08-17T05:03:26.147Z,11.33
2022-08-17T05:05:53.711Z,10.87
2022-08-17T05:08:21.197Z,10.70
2022-08-17T05:10:48.299Z,11.33
2022-08-17T05:13:17.601Z,10.63
2022-08-17T05:15:47.786Z,10.60
2022-08-17T05:18:14.956Z,11.70
2022-08-17T05:20:41.664Z,11.37
2022-08-17T05:23:10.702Z,10.93
2022-08-17T05:25:41.134Z,11.20
2022-08-17T05:28:08.887Z,10.93
2022-08-17T05:30:36.130Z,10.50
2022-08-17T05:33:06.611Z,9.87
2022-08-17T05:35:35.329Z,9.77
2022-08-17T05:38:02.036Z,10.30
2022-08-17T05:40:32.865Z,10.80
2022-08-17T05:43:36.602Z,10.43
2022-08-17T05:46:25.338Z,9.67
2022-08-17T05:48:55.096Z,10.40
2022-08-17T05:51:46.048Z,10.33
2022-08-17T05:54:27.208Z,9.67
2022-08-17T05:57:20.946Z,10.13
2022-08-17T05:59:50.759Z,9.00
2022-08-17T06:02:35.937Z,9.33
2022-08-17T06:05:23.491Z,9.20
2022-08-17T06:08:15.439Z,9.83
2022-08-17T06:10:47.826Z,9.47
2022-08-17T06:13:31.682Z,9.00
2022-08-17T06:16:33.554Z,9.20
2022-08-17T06:19:01.559Z,9.20
2022-08-17T06:21:33.455Z,8.73
2022-08-17T06:24:06.703Z,9.40
2022-08-17T06:26:38.554Z,10.20
2022-08-17T06:29:37.213Z,10.57
2022-08-17T06:32:05.649Z,9.67
2022-08-17T06:34:33.877Z,9.10
2022-08-17T06:37:22.021Z,8.70
2022-08-17T06:39:52.835Z,9.37
2022-08-17T06:42:54.759Z,9.95
2022-08-17T06:45:17.904Z,9.80
2022-08-17T06:48:01.156Z,8.60
2022-08-17T06:50:40.690Z,7.97
2022-08-17T06:53:23.689Z,8.40
2022-08-17T06:56:05.409Z,8.07
2022-08-17T06:58:33.396Z,8.00
2022-08-17T07:01:10.806Z,8.55
2022-08-17T07:03:45.705Z,7.78
2022-08-17T07:06:18.014Z,8.05
2022-08-17T07:08:59.749Z,7.45
2022-08-17T07:11:40.563Z,8.15
2022-08-17T07:14:37.727Z,6.38
2022-08-17T07:17:09.443Z,6.45
2022-08-17T07:19:41.094Z,7.70
2022-08-17T07:22:14.078Z,7.60
2022-08-17T07:24:58.089Z,7.47
2022-08-17T07:27:31.211Z,7.85
2022-08-17T07:30:10.226Z,8.35
2022-08-17T07:32:46.363Z,7.45
2022-08-17T07:35:40.965Z,8.60
2022-08-17T07:38:24.920Z,7.25
2022-08-17T07:41:02.113Z,6.78
2022-08-17T07:43:37.746Z,6.63
2022-08-17T07:46:44.936Z,6.45
2022-08-17T07:49:12.548Z,6.65
2022-08-17T07:51:45.737Z,7.32
2022-08-17T07:54:15.314Z,6.50
2022-08-17T07:56:53.563Z,6.63
2022-08-17T07:59:33.567Z,6.45
2022-08-17T08:02:08.183Z,6.72
2022-08-17T08:05:00.945Z,7.30
2022-08-17T08:07:35.920Z,7.03
2022-08-17T08:10:09.550Z,8.23
2022-08-17T08:13:14.199Z,7.03
2022-08-17T08:15:53.691Z,7.50
2022-08-17T08:18:53.866Z,7.60
2022-08-17T08:21:24.469Z,7.90
2022-08-17T08:24:00.277Z,7.53
2022-08-17T08:26:55.535Z,7.22
2022-08-17T08:29:28.431Z,6.63
2022-08-17T08:32:20.503Z,6.87
2022-08-17T08:35:04.916Z,7.57
2022-08-17T08:37:58.278Z,6.80
2022-08-17T08:40:45.582Z,7.32
2022-08-17T08:43:37.295Z,7.43
2022-08-17T08:46:45.721Z,6.50
2022-08-17T08:49:59.097Z,6.78
2022-08-17T08:52:37.424Z,6.45
2022-08-17T08:55:07.777Z,6.87
2022-08-17T08:57:42.618Z,7.20
2022-08-17T09:00:35.895Z,6.82
2022-08-17T09:03:28.114Z,5.95
2022-08-17T09:06:39.402Z,6.03
2022-08-17T09:09:41.775Z,6.07
2022-08-17T09:12:16.798Z,6.40
2022-08-17T09:14:53.299Z,6.20
2022-08-17T09:17:36.675Z,6.15
2022-08-17T09:20:27.177Z,6.63
2022-08-17T09:23:03.974Z,6.85
2022-08-17T09:25:33.277Z,5.80
2022-08-17T09:28:06.674Z,6.40
2022-08-17T09:30:40.723Z,5.18
2022-08-17T09:33:09.385Z,6.25
2022-08-17T09:35:44.578Z,5.57
2022-08-17T09:38:31.766Z,5.43
2022-08-17T09:41:19.545Z,6.00
2022-08-17T09:44:22.574Z,5.97
2022-08-17T09:47:06.226Z,5.63
2022-08-17T09:49:45.407Z,6.20
2022-08-17T09:52:21.234Z,5.60
2022-08-17T09:54:48.848Z,5.93
2022-08-17T09:57:42.443Z,6.07
2022-08-17T10:00:18.748Z,6.00
2022-08-17T10:02:55.796Z,6.32
2022-08-17T10:05:46.463Z,5.82
2022-08-17T10:08:28.771Z,6.72
2022-08-17T10:11:17.453Z,6.53
2022-08-17T10:13:59.647Z,6.22
2022-08-17T10:16:38.976Z,6.65
2022-08-17T10:19:18.872Z,5.97
2022-08-17T10:22:32.704Z,6.63
2022-08-17T10:25:23.960Z,6.38
2022-08-17T10:27:55.580Z,6.50
2022-08-17T10:30:25.489Z,6.53
2022-08-17T10:33:24.160Z,6.72
2022-08-17T10:35:59.491Z,6.35
2022-08-17T10:38:47.956Z,6.10
2022-08-17T10:41:27.883Z,5.97
2022-08-17T10:44:38.519Z,6.32
2022-08-17T10:47:16.663Z,6.38
2022-08-17T10:49:49.647Z,6.57
2022-08-17T10:52:19.388Z,6.47
2022-08-17T10:54:57.896Z,6.93
2022-08-17T10:57:34.499Z,6.00
2022-08-17T11:00:03.239Z,6.20
2022-08-17T11:02:37.995Z,6.32
2022-08-17T11:05:28.661Z,6.35
2022-08-17T11:08:13.968Z,5.80
2022-08-17T11:10:53.332Z,6.07
2022-08-17T11:13:38.741Z,6.20
2022-08-17T11:16:22.291Z,5.47
2022-08-17T11:19:14.845Z,8.25
2022-08-17T11:21:59.990Z,6.35
2022-08-17T11:24:43.391Z,5.95
2022-08-17T11:27:20.136Z,6.03
2022-08-17T11:30:01.474Z,6.18
2022-08-17T11:32:34.016Z,7.10
2022-08-17T11:35:21.898Z,6.85
2022-08-17T11:38:15.052Z,6.70
2022-08-17T11:41:05.754Z,6.70
2022-08-17T11:43:55.457Z,6.40
2022-08-17T11:47:07.940Z,6.22
2022-08-17T11:50:08.213Z,6.45
2022-08-17T11:52:38.642Z,5.95
2022-08-17T11:55:33.505Z,6.75
2022-08-17T11:58:01.887Z,6.90
2022-08-17T12:00:40.684Z,6.65
2022-08-17T12:03:43.406Z,6.45
2022-08-17T12:06:30.498Z,6.47
2022-08-17T12:09:18.400Z,6.32
2022-08-17T12:12:12.763Z,6.28
2022-08-17T12:15:11.543Z,5.95
2022-08-17T12:17:42.736Z,6.25
2022-08-17T12:20:31.089Z,6.55
2022-08-17T12:23:06.553Z,5.93
2022-08-17T12:25:58.302Z,6.00
2022-08-17T12:28:30.755Z,6.10
2022-08-17T12:31:01.644Z,7.13
2022-08-17T12:33:31.139Z,5.45
2022-08-17T12:36:03.321Z,5.95
2022-08-17T12:38:36.276Z,5.78
2022-08-17T12:41:25.123Z,5.73
2022-08-17T12:44:04.568Z,6.45
2022-08-17T12:46:34.128Z,6.32
2022-08-17T12:49:33.405Z,5.70
2022-08-17T12:52:04.402Z,6.25
2022-08-17T12:54:54.103Z,6.47
2022-08-17T12:57:35.084Z,5.78
2022-08-17T13:00:20.021Z,6.22
2022-08-17T13:02:51.291Z,7.80
2022-08-17T13:05:33.596Z,8.25
2022-08-17T13:08:00.297Z,7.15
2022-08-17T13:10:33.435Z,6.97
2022-08-17T13:13:17.621Z,6.32
2022-08-17T13:15:53.455Z,6.53
2022-08-17T13:18:42.317Z,6.55
2022-08-17T13:21:11.828Z,5.63
2022-08-17T13:23:38.391Z,5.80
2022-08-17T13:26:17.276Z,7.07
2022-08-17T13:28:48.518Z,6.57
2022-08-17T13:31:24.118Z,6.78
2022-08-17T13:33:51.009Z,6.43
2022-08-17T13:36:30.119Z,6.13
2022-08-17T13:39:21.255Z,6.70
2022-08-17T13:41:49.428Z,6.20
2022-08-17T13:44:37.127Z,6.18
2022-08-17T13:47:17.470Z,6.38
2022-08-17T13:49:48.659Z,5.75
2022-08-17T13:52:37.920Z,6.15
2022-08-17T13:55:17.153Z,5.82
2022-08-17T13:58:03.619Z,6.20
2022-08-17T14:00:36.248Z,5.55
2022-08-17T14:03:04.148Z,5.65
2022-08-17T14:05:31.346Z,5.35
2022-08-17T14:08:02.656Z,5.80
2022-08-17T14:10:35.857Z,5.75
2022-08-17T14:13:03.109Z,5.63
2022-08-17T14:15:55.349Z,5.82
2022-08-17T14:18:18.102Z,6.28
2022-08-17T14:21:08.302Z,6.85
2022-08-17T14:23:36.184Z,6.25
2022-08-17T14:26:03.529Z,5.75
2022-08-17T14:28:30.012Z,6.07
2022-08-17T14:31:00.348Z,6.60
2022-08-17T14:33:28.298Z,6.00
2022-08-17T14:35:56.014Z,5.75
2022-08-17T14:38:23.564Z,6.10
2022-08-17T14:40:50.277Z,5.85
2022-08-17T14:43:17.964Z,6.05
2022-08-17T14:45:44.509Z,6.22
2022-08-17T14:48:11.165Z,6.53
2022-08-17T14:50:41.077Z,5.90
2022-08-17T14:53:09.997Z,6.53
2022-08-17T14:55:39.877Z,6.30
2022-08-17T14:58:06.959Z,6.20
2022-08-17T15:00:33.854Z,5.80
2022-08-17T15:03:01.289Z,6.28
2022-08-17T15:05:31.645Z,5.82
2022-08-17T15:07:59.375Z,6.22
2022-08-17T15:10:26.125Z,6.70
2022-08-17T15:12:52.730Z,6.82
2022-08-17T15:15:19.880Z,5.93
2022-08-17T15:17:46.449Z,6.73
2022-08-17T15:20:18.749Z,6.32
2022-08-17T15:22:46.804Z,6.13
2022-08-17T15:25:14.249Z,7.07
2022-08-17T15:27:40.859Z,7.15
2022-08-17T15:30:08.547Z,6.60
2022-08-17T15:32:38.105Z,7.38
2022-08-17T15:35:06.740Z,6.72
2022-08-17T15:37:33.411Z,6.82
2022-08-17T15:40:01.294Z,6.30
2022-08-17T15:42:27.964Z,6.75
2022-08-17T15:44:57.604Z,6.15
2022-08-17T15:47:24.879Z,7.10
2022-08-17T15:49:53.581Z,6.55
2022-08-17T15:52:27.692Z,9.82
2022-08-17T15:54:59.662Z,6.85
2022-08-17T15:57:27.460Z,7.45
2022-08-17T15:59:59.028Z,7.03
2022-08-17T16:03:15.987Z,6.85
2022-08-17T16:05:24.094Z,7.22
2022-08-17T16:07:52.072Z,6.30
2022-08-17T16:10:19.497Z,6.95
2022-08-17T16:12:48.473Z,7.35
2022-08-17T16:15:16.586Z,6.18
2022-08-17T16:17:43.090Z,6.57
2022-08-17T16:20:19.928Z,6.60
2022-08-17T16:22:48.685Z,7.13
2022-08-17T16:25:21.285Z,8.48
2022-08-17T16:27:53.528Z,6.63
2022-08-17T16:30:23.186Z,6.78
2022-08-17T16:32:54.320Z,7.53
2022-08-17T16:35:22.711Z,8.32
2022-08-17T16:37:49.507Z,7.87
2022-08-17T16:40:16.845Z,7.68
2022-08-17T16:42:45.893Z,7.30
2022-08-17T16:45:18.483Z,7.65
2022-08-17T16:47:45.473Z,7.55
2022-08-17T16:50:13.925Z,7.90
2022-08-17T16:52:40.825Z,7.55
2022-08-17T16:55:09.365Z,7.22
2022-08-17T16:57:47.505Z,7.90
2022-08-17T17:00:19.204Z,7.80
2022-08-17T17:02:47.770Z,7.68
2022-08-17T17:05:25.198Z,8.70
2022-08-17T17:08:04.020Z,7.63
2022-08-17T17:10:43.277Z,8.05
2022-08-17T17:13:14.729Z,8.20
2022-08-17T17:15:55.180Z,7.90
2022-08-17T17:18:30.318Z,7.97
2022-08-17T17:20:58.218Z,8.57
2022-08-17T17:23:38.569Z,8.15
2022-08-17T17:26:23.748Z,8.52
2022-08-17T17:29:05.763Z,8.23
2022-08-17T17:31:38.438Z,8.18
2022-08-17T17:34:07.340Z,8.73
2022-08-17T17:36:52.638Z,8.63
2022-08-17T17:39:33.589Z,8.40
2022-08-17T17:42:07.772Z,8.80
2022-08-17T17:44:39.192Z,8.75
2022-08-17T17:47:06.075Z,8.40
2022-08-17T17:49:39.687Z,9.45
2022-08-17T17:52:19.174Z,8.82
2022-08-17T17:55:25.533Z,10.27
2022-08-17T17:58:11.009Z,9.98
2022-08-17T18:00:40.549Z,11.13
2022-08-17T18:03:40.358Z,10.75
2022-08-17T18:06:12.605Z,10.50
2022-08-17T18:08:50.746Z,9.83
2022-08-17T18:11:41.392Z,10.10
2022-08-17T18:14:27.428Z,10.88
2022-08-17T18:16:56.743Z,11.13
2022-08-17T18:19:25.567Z,10.97
2022-08-17T18:22:03.345Z,10.75
2022-08-17T18:24:39.574Z,10.23
2022-08-17T18:27:37.548Z,10.02
2022-08-17T18:30:27.618Z,12.30
2022-08-17T18:32:54.295Z,11.23
2022-08-17T18:35:22.235Z,12.20
2022-08-17T18:37:52.614Z,11.75
2022-08-17T18:40:19.633Z,11.68
2022-08-17T18:42:55.522Z,11.73
2022-08-17T18:45:33.556Z,11.02
2022-08-17T18:48:00.933Z,12.20
2022-08-17T18:50:36.479Z,11.30
2022-08-17T18:53:30.177Z,12.23
2022-08-17T18:56:27.852Z,11.90
2022-08-17T18:59:04.428Z,11.43
2022-08-17T19:02:03.303Z,12.50
2022-08-17T19:04:39.463Z,11.07
2022-08-17T19:07:13.176Z,13.03
2022-08-17T19:09:49.252Z,12.20
2022-08-17T19:12:44.589Z,13.27
2022-08-17T19:15:14.188Z,12.40
2022-08-17T19:17:50.234Z,13.10
2022-08-17T19:20:27.084Z,12.53
2022-08-17T19:23:07.290Z,12.32
2022-08-17T19:25:38.281Z,12.57
2022-08-17T19:28:22.225Z,12.67
2022-08-17T19:30:54.206Z,13.43
2022-08-17T19:33:20.904Z,13.33
2022-08-17T19:35:55.538Z,13.50
2022-08-17T19:38:34.280Z,12.83
2022-08-17T19:41:07.723Z,13.10
2022-08-17T19:44:07.051Z,13.83
2022-08-17T19:46:56.362Z,13.23
2022-08-17T19:49:52.786Z,13.43
2022-08-17T19:52:37.672Z,13.70
2022-08-17T19:55:30.663Z,13.53
2022-08-17T19:58:18.058Z,14.13
2022-08-17T20:00:50.321Z,13.10
2022-08-17T20:03:28.364Z,13.50
2022-08-17T20:06:12.669Z,13.77
2022-08-17T20:08:45.094Z,14.43
2022-08-17T20:11:19.892Z,13.63
2022-08-17T20:13:59.041Z,14.50
2022-08-17T20:16:26.175Z,14.17
2022-08-17T20:18:59.812Z,14.67
2022-08-17T20:21:37.293Z,13.60
2022-08-17T20:24:17.994Z,13.87
2022-08-17T20:26:57.981Z,14.30
2022-08-17T20:29:37.445Z,13.50
2022-08-17T20:32:15.082Z,13.23
2022-08-17T20:34:45.520Z,14.27
2022-08-17T20:37:14.739Z,14.23
2022-08-17T20:40:09.576Z,14.57
2022-08-17T20:42:36.993Z,13.97
2022-08-17T20:45:25.106Z,14.93
2022-08-17T20:48:30.872Z,14.50
2022-08-17T20:50:52.751Z,14.83
2022-08-17T20:53:54.043Z,15.13
2022-08-17T20:56:45.097Z,14.63
2022-08-17T20:59:20.421Z,13.70
2022-08-17T21:02:08.055Z,14.90
2022-08-17T21:05:00.767Z,13.67
2022-08-17T21:07:33.043Z,15.30
2022-08-17T21:10:28.297Z,14.20
2022-08-17T21:13:16.019Z,15.57
2022-08-17T21:15:48.529Z,15.70
2022-08-17T21:18:18.370Z,16.20
2022-08-17T21:21:06.695Z,16.40
2022-08-17T21:23:49.617Z,15.20
2022-08-17T21:26:32.760Z,15.30
2022-08-17T21:29:17.906Z,16.23
2022-08-17T21:32:05.383Z,15.30
2022-08-17T21:34:43.337Z,16.13
2022-08-17T21:37:30.874Z,15.07
2022-08-17T21:40:19.661Z,14.90
2022-08-17T21:42:49.510Z,15.90
2022-08-17T21:45:37.506Z,15.27
2022-08-17T21:48:08.997Z,15.73
2022-08-17T21:50:35.998Z,14.50
2022-08-17T21:53:03.463Z,13.47
2022-08-17T21:55:31.782Z,14.63
2022-08-17T21:58:14.742Z,14.97
2022-08-17T22:00:44.038Z,13.73
2022-08-17T22:03:23.465Z,14.37
2022-08-17T22:05:51.555Z,14.97
2022-08-17T22:08:21.285Z,14.70
2022-08-17T22:10:50.512Z,15.60
2022-08-17T22:13:17.608Z,14.73
2022-08-17T22:15:50.287Z,14.60
2022-08-17T22:18:27.189Z,16.13
2022-08-17T22:20:56.809Z,14.30
2022-08-17T22:23:54.130Z,15.27
2022-08-17T22:26:23.066Z,14.17
2022-08-17T22:28:56.647Z,15.13
2022-08-17T22:31:25.326Z,13.10
2022-08-17T22:33:59.791Z,15.27
2022-08-17T22:36:33.907Z,14.10
2022-08-17T22:39:01.379Z,13.30
2022-08-17T22:41:47.028Z,14.00
2022-08-17T22:44:17.715Z,15.63
2022-08-17T22:47:13.886Z,14.60
2022-08-17T22:49:57.128Z,15.70
2022-08-17T22:53:01.652Z,13.87
2022-08-17T22:55:48.998Z,16.33
2022-08-17T22:58:37.385Z,15.23
2022-08-17T23:01:28.609Z,14.93
2022-08-17T23:04:07.262Z,16.37
2022-08-17T23:06:35.225Z,14.80
2022-08-17T23:09:04.370Z,16.87
2022-08-17T23:11:48.615Z,15.53
2022-08-17T23:14:20.496Z,16.67
2022-08-17T23:16:48.962Z,17.33
2022-08-17T23:19:20.211Z,15.07
2022-08-17T23:21:47.077Z,15.00
2022-08-17T23:24:25.564Z,14.77
2022-08-17T23:26:52.244Z,14.80
2022-08-17T23:29:21.329Z,16.23
2022-08-17T23:31:49.186Z,17.20
2022-08-17T23:34:18.307Z,16.37
2022-08-17T23:36:50.533Z,16.60
2022-08-17T23:39:24.703Z,16.37
2022-08-17T23:41:56.828Z,15.40
2022-08-17T23:44:23.468Z,15.93
2022-08-17T23:46:54.005Z,17.20
2022-08-17T23:49:20.871Z,15.23
2022-08-17T23:51:48.123Z,15.87
2022-08-17T23:54:35.453Z,18.07
2022-08-17T23:57:04.720Z,17.67
2022-08-17T23:59:33.369Z,17.17
